sensor_id;sensor_type;location;lat;lon;timestamp;temperature;humidity
17421;DHT22;8828;48.800;9.540;2022-12-07T00:01:05;5.80;99.90
17421;DHT22;8828;48.800;9.540;2022-12-07T00:03:34;5.80;99.90
17421;DHT22;8828;48.800;9.540;2022-12-07T00:06:03;5.80;99.90
17421;DHT22;8828;48.800;9.540;2022-12-07T00:08:33;5.80;99.90
17421;DHT22;8828;48.800;9.540;2022-12-07T00:11:02;5.80;99.90
17421;DHT22;8828;48.800;9.540;2022-12-07T00:13:30;5.80;99.90
17421;DHT22;8828;48.800;9.540;2022-12-07T00:16:02;5.80;99.90
17421;DHT22;8828;48.800;9.540;2022-12-07T00:18:30;5.80;99.90
17421;DHT22;8828;48.800;9.540;2022-12-07T00:21:01;5.80;99.90
17421;DHT22;8828;48.800;9.540;2022-12-07T00:23:29;5.80;99.90
17421;DHT22;8828;48.800;9.540;2022-12-07T00:26:03;5.80;99.90
17421;DHT22;8828;48.800;9.540;2022-12-07T00:28:31;5.80;99.90
17421;DHT22;8828;48.800;9.540;2022-12-07T00:31:03;5.80;99.90
17421;DHT22;8828;48.800;9.540;2022-12-07T00:33:31;5.80;99.90
17421;DHT22;8828;48.800;9.540;2022-12-07T00:36:01;5.80;99.90
17421;DHT22;8828;48.800;9.540;2022-12-07T00:38:30;5.80;99.90
17421;DHT22;8828;48.800;9.540;2022-12-07T00:41:00;5.80;99.90
17421;DHT22;8828;48.800;9.540;2022-12-07T00:43:29;5.80;99.90
17421;DHT22;8828;48.800;9.540;2022-12-07T00:45:57;5.80;99.90
17421;DHT22;8828;48.800;9.540;2022-12-07T00:48:27;5.80;99.90
17421;DHT22;8828;48.800;9.540;2022-12-07T00:50:55;5.80;99.90
17421;DHT22;8828;48.800;9.540;2022-12-07T00:53:22;5.80;99.90
17421;DHT22;8828;48.800;9.540;2022-12-07T00:55:50;5.80;99.90
17421;DHT22;8828;48.800;9.540;2022-12-07T00:58:19;5.80;99.90
17421;DHT22;8828;48.800;9.540;2022-12-07T01:00:47;5.80;99.90
17421;DHT22;8828;48.800;9.540;2022-12-07T01:03:16;5.80;99.90
17421;DHT22;8828;48.800;9.540;2022-12-07T01:05:53;5.80;99.90
17421;DHT22;8828;48.800;9.540;2022-12-07T01:08:22;5.80;99.90
17421;DHT22;8828;48.800;9.540;2022-12-07T01:10:58;5.80;99.90
17421;DHT22;8828;48.800;9.540;2022-12-07T01:13:26;5.80;99.90
17421;DHT22;8828;48.800;9.540;2022-12-07T01:15:57;5.80;99.90
17421;DHT22;8828;48.800;9.540;2022-12-07T01:18:26;5.90;99.90
17421;DHT22;8828;48.800;9.540;2022-12-07T01:21:00;5.90;99.90
17421;DHT22;8828;48.800;9.540;2022-12-07T01:23:29;5.90;99.90
17421;DHT22;8828;48.800;9.540;2022-12-07T01:25:59;5.80;99.90
17421;DHT22;8828;48.800;9.540;2022-12-07T01:28:28;5.80;99.90
17421;DHT22;8828;48.800;9.540;2022-12-07T01:30:58;5.80;99.90
17421;DHT22;8828;48.800;9.540;2022-12-07T01:33:27;5.80;99.90
17421;DHT22;8828;48.800;9.540;2022-12-07T01:36:02;5.80;99.90
17421;DHT22;8828;48.800;9.540;2022-12-07T01:38:30;5.80;99.90
17421;DHT22;8828;48.800;9.540;2022-12-07T01:41:00;5.80;99.90
17421;DHT22;8828;48.800;9.540;2022-12-07T01:43:30;5.70;99.90
17421;DHT22;8828;48.800;9.540;2022-12-07T01:45:58;5.70;99.90
17421;DHT22;8828;48.800;9.540;2022-12-07T01:48:30;5.70;99.90
17421;DHT22;8828;48.800;9.540;2022-12-07T01:51:05;5.70;99.90
17421;DHT22;8828;48.800;9.540;2022-12-07T01:53:36;5.70;99.90
17421;DHT22;8828;48.800;9.540;2022-12-07T01:56:06;5.70;99.90
17421;DHT22;8828;48.800;9.540;2022-12-07T01:58:35;5.70;99.90
17421;DHT22;8828;48.800;9.540;2022-12-07T02:01:04;5.70;99.90
17421;DHT22;8828;48.800;9.540;2022-12-07T02:03:36;5.70;99.90
17421;DHT22;8828;48.800;9.540;2022-12-07T02:06:07;5.70;99.90
17421;DHT22;8828;48.800;9.540;2022-12-07T02:08:36;5.70;99.90
17421;DHT22;8828;48.800;9.540;2022-12-07T02:11:05;5.70;99.90
17421;DHT22;8828;48.800;9.540;2022-12-07T02:13:35;5.70;99.90
17421;DHT22;8828;48.800;9.540;2022-12-07T02:16:13;5.70;99.90
17421;DHT22;8828;48.800;9.540;2022-12-07T02:18:55;5.70;99.90
17421;DHT22;8828;48.800;9.540;2022-12-07T02:21:32;5.70;99.90
17421;DHT22;8828;48.800;9.540;2022-12-07T02:24:37;5.70;99.90
17421;DHT22;8828;48.800;9.540;2022-12-07T02:27:36;5.70;99.90
17421;DHT22;8828;48.800;9.540;2022-12-07T02:30:08;5.70;99.90
17421;DHT22;8828;48.800;9.540;2022-12-07T02:32:44;5.70;99.90
17421;DHT22;8828;48.800;9.540;2022-12-07T02:35:19;5.70;99.90
17421;DHT22;8828;48.800;9.540;2022-12-07T02:37:53;5.70;99.90
17421;DHT22;8828;48.800;9.540;2022-12-07T02:40:29;5.70;99.90
17421;DHT22;8828;48.800;9.540;2022-12-07T02:43:02;5.70;99.90
17421;DHT22;8828;48.800;9.540;2022-12-07T02:45:34;5.60;99.90
17421;DHT22;8828;48.800;9.540;2022-12-07T02:48:04;5.60;99.90
17421;DHT22;8828;48.800;9.540;2022-12-07T02:50:33;5.70;99.90
17421;DHT22;8828;48.800;9.540;2022-12-07T02:53:01;5.60;99.90
17421;DHT22;8828;48.800;9.540;2022-12-07T02:55:33;5.60;99.90
17421;DHT22;8828;48.800;9.540;2022-12-07T02:58:23;5.60;99.90
17421;DHT22;8828;48.800;9.540;2022-12-07T03:01:04;5.60;99.90
17421;DHT22;8828;48.800;9.540;2022-12-07T03:03:35;5.60;99.90
17421;DHT22;8828;48.800;9.540;2022-12-07T03:06:10;5.60;99.90
17421;DHT22;8828;48.800;9.540;2022-12-07T03:08:47;5.60;99.90
17421;DHT22;8828;48.800;9.540;2022-12-07T03:11:21;5.60;99.90
17421;DHT22;8828;48.800;9.540;2022-12-07T03:13:58;5.60;99.90
17421;DHT22;8828;48.800;9.540;2022-12-07T03:16:31;5.50;99.90
17421;DHT22;8828;48.800;9.540;2022-12-07T03:19:03;5.50;99.90
17421;DHT22;8828;48.800;9.540;2022-12-07T03:21:34;5.50;99.90
17421;DHT22;8828;48.800;9.540;2022-12-07T03:24:08;5.50;99.90
17421;DHT22;8828;48.800;9.540;2022-12-07T03:26:40;5.50;99.90
17421;DHT22;8828;48.800;9.540;2022-12-07T03:29:14;5.50;99.90
17421;DHT22;8828;48.800;9.540;2022-12-07T03:31:49;5.50;99.90
17421;DHT22;8828;48.800;9.540;2022-12-07T03:34:22;5.50;99.90
17421;DHT22;8828;48.800;9.540;2022-12-07T03:36:56;5.60;99.90
17421;DHT22;8828;48.800;9.540;2022-12-07T03:39:29;5.60;99.90
17421;DHT22;8828;48.800;9.540;2022-12-07T03:42:02;5.60;99.90
17421;DHT22;8828;48.800;9.540;2022-12-07T03:44:32;5.60;99.90
17421;DHT22;8828;48.800;9.540;2022-12-07T03:47:05;5.60;99.90
17421;DHT22;8828;48.800;9.540;2022-12-07T03:49:41;5.60;99.90
17421;DHT22;8828;48.800;9.540;2022-12-07T03:52:17;5.60;99.90
17421;DHT22;8828;48.800;9.540;2022-12-07T03:54:52;5.60;99.90
17421;DHT22;8828;48.800;9.540;2022-12-07T03:57:22;5.50;99.90
17421;DHT22;8828;48.800;9.540;2022-12-07T03:59:53;5.60;99.90
17421;DHT22;8828;48.800;9.540;2022-12-07T04:02:23;5.60;99.90
17421;DHT22;8828;48.800;9.540;2022-12-07T04:04:53;5.60;99.90
17421;DHT22;8828;48.800;9.540;2022-12-07T04:07:21;5.50;99.90
17421;DHT22;8828;48.800;9.540;2022-12-07T04:09:48;5.50;99.90
17421;DHT22;8828;48.800;9.540;2022-12-07T04:12:16;5.50;99.90
17421;DHT22;8828;48.800;9.540;2022-12-07T04:14:44;5.50;99.90
17421;DHT22;8828;48.800;9.540;2022-12-07T04:17:12;5.40;99.90
17421;DHT22;8828;48.800;9.540;2022-12-07T04:19:42;5.40;99.90
17421;DHT22;8828;48.800;9.540;2022-12-07T04:22:10;5.40;99.90
17421;DHT22;8828;48.800;9.540;2022-12-07T04:24:38;5.40;99.90
17421;DHT22;8828;48.800;9.540;2022-12-07T04:27:06;5.40;99.90
17421;DHT22;8828;48.800;9.540;2022-12-07T04:29:34;5.30;99.90
17421;DHT22;8828;48.800;9.540;2022-12-07T04:32:02;5.30;99.90
17421;DHT22;8828;48.800;9.540;2022-12-07T04:34:30;5.30;99.90
17421;DHT22;8828;48.800;9.540;2022-12-07T04:36:59;5.30;99.90
17421;DHT22;8828;48.800;9.540;2022-12-07T04:39:29;5.30;99.90
17421;DHT22;8828;48.800;9.540;2022-12-07T04:41:58;5.20;99.90
17421;DHT22;8828;48.800;9.540;2022-12-07T04:44:28;5.20;99.90
17421;DHT22;8828;48.800;9.540;2022-12-07T04:46:56;5.10;99.90
17421;DHT22;8828;48.800;9.540;2022-12-07T04:49:25;5.10;99.90
17421;DHT22;8828;48.800;9.540;2022-12-07T04:51:53;5.00;99.90
17421;DHT22;8828;48.800;9.540;2022-12-07T04:54:22;5.00;99.90
17421;DHT22;8828;48.800;9.540;2022-12-07T04:56:50;4.90;99.90
17421;DHT22;8828;48.800;9.540;2022-12-07T04:59:18;4.90;99.90
17421;DHT22;8828;48.800;9.540;2022-12-07T05:01:46;4.90;99.90
17421;DHT22;8828;48.800;9.540;2022-12-07T05:04:14;4.90;99.90
17421;DHT22;8828;48.800;9.540;2022-12-07T05:06:44;4.90;99.90
17421;DHT22;8828;48.800;9.540;2022-12-07T05:09:12;4.90;99.90
17421;DHT22;8828;48.800;9.540;2022-12-07T05:11:41;5.00;99.90
17421;DHT22;8828;48.800;9.540;2022-12-07T05:14:13;5.00;99.90
17421;DHT22;8828;48.800;9.540;2022-12-07T05:16:43;5.00;99.90
17421;DHT22;8828;48.800;9.540;2022-12-07T05:19:12;5.00;99.90
17421;DHT22;8828;48.800;9.540;2022-12-07T05:21:40;5.00;99.90
17421;DHT22;8828;48.800;9.540;2022-12-07T05:24:10;5.10;99.90
17421;DHT22;8828;48.800;9.540;2022-12-07T05:26:40;5.10;99.90
17421;DHT22;8828;48.800;9.540;2022-12-07T05:29:11;5.10;99.90
17421;DHT22;8828;48.800;9.540;2022-12-07T05:31:39;5.10;99.90
17421;DHT22;8828;48.800;9.540;2022-12-07T05:34:10;5.10;99.90
17421;DHT22;8828;48.800;9.540;2022-12-07T05:36:38;5.10;99.90
17421;DHT22;8828;48.800;9.540;2022-12-07T05:39:06;5.10;99.90
17421;DHT22;8828;48.800;9.540;2022-12-07T05:41:34;5.10;99.90
17421;DHT22;8828;48.800;9.540;2022-12-07T05:44:21;5.10;99.90
17421;DHT22;8828;48.800;9.540;2022-12-07T05:46:52;5.20;99.90
17421;DHT22;8828;48.800;9.540;2022-12-07T05:49:20;5.10;99.90
17421;DHT22;8828;48.800;9.540;2022-12-07T05:51:48;5.10;99.90
17421;DHT22;8828;48.800;9.540;2022-12-07T05:54:16;5.10;99.90
17421;DHT22;8828;48.800;9.540;2022-12-07T05:56:44;5.10;99.90
17421;DHT22;8828;48.800;9.540;2022-12-07T05:59:12;5.10;99.90
17421;DHT22;8828;48.800;9.540;2022-12-07T06:01:56;5.00;99.90
17421;DHT22;8828;48.800;9.540;2022-12-07T06:04:26;5.00;99.90
17421;DHT22;8828;48.800;9.540;2022-12-07T06:06:54;5.00;99.90
17421;DHT22;8828;48.800;9.540;2022-12-07T06:09:23;5.00;99.90
17421;DHT22;8828;48.800;9.540;2022-12-07T06:11:52;5.00;99.90
17421;DHT22;8828;48.800;9.540;2022-12-07T06:14:38;5.00;99.90
17421;DHT22;8828;48.800;9.540;2022-12-07T06:17:09;5.00;99.90
17421;DHT22;8828;48.800;9.540;2022-12-07T06:19:37;5.00;99.90
17421;DHT22;8828;48.800;9.540;2022-12-07T06:22:05;5.00;99.90
17421;DHT22;8828;48.800;9.540;2022-12-07T06:24:34;5.00;99.90
17421;DHT22;8828;48.800;9.540;2022-12-07T06:27:02;5.00;99.90
17421;DHT22;8828;48.800;9.540;2022-12-07T06:29:30;5.00;99.90
17421;DHT22;8828;48.800;9.540;2022-12-07T06:31:58;5.00;99.90
17421;DHT22;8828;48.800;9.540;2022-12-07T06:34:28;5.00;99.90
17421;DHT22;8828;48.800;9.540;2022-12-07T06:36:56;4.90;99.90
17421;DHT22;8828;48.800;9.540;2022-12-07T06:39:25;4.90;99.90
17421;DHT22;8828;48.800;9.540;2022-12-07T06:41:54;4.90;99.90
17421;DHT22;8828;48.800;9.540;2022-12-07T06:44:22;4.90;99.90
17421;DHT22;8828;48.800;9.540;2022-12-07T06:46:51;4.90;99.90
17421;DHT22;8828;48.800;9.540;2022-12-07T06:49:41;4.90;99.90
17421;DHT22;8828;48.800;9.540;2022-12-07T06:52:09;4.80;99.90
17421;DHT22;8828;48.800;9.540;2022-12-07T06:54:37;4.90;99.90
17421;DHT22;8828;48.800;9.540;2022-12-07T06:57:05;4.80;99.90
17421;DHT22;8828;48.800;9.540;2022-12-07T06:59:33;4.80;99.90
17421;DHT22;8828;48.800;9.540;2022-12-07T07:02:01;4.80;99.90
17421;DHT22;8828;48.800;9.540;2022-12-07T07:04:29;4.90;99.90
17421;DHT22;8828;48.800;9.540;2022-12-07T07:06:58;4.90;99.90
17421;DHT22;8828;48.800;9.540;2022-12-07T07:09:27;4.90;99.90
17421;DHT22;8828;48.800;9.540;2022-12-07T07:11:55;4.90;99.90
17421;DHT22;8828;48.800;9.540;2022-12-07T07:14:23;4.90;99.90
17421;DHT22;8828;48.800;9.540;2022-12-07T07:16:54;4.90;99.90
17421;DHT22;8828;48.800;9.540;2022-12-07T07:19:26;4.90;99.90
17421;DHT22;8828;48.800;9.540;2022-12-07T07:21:54;4.90;99.90
17421;DHT22;8828;48.800;9.540;2022-12-07T07:24:26;4.90;99.90
17421;DHT22;8828;48.800;9.540;2022-12-07T07:26:58;4.90;99.90
17421;DHT22;8828;48.800;9.540;2022-12-07T07:29:27;5.00;99.90
17421;DHT22;8828;48.800;9.540;2022-12-07T07:31:55;5.00;99.90
17421;DHT22;8828;48.800;9.540;2022-12-07T07:34:30;5.00;99.90
17421;DHT22;8828;48.800;9.540;2022-12-07T07:37:04;5.10;99.90
17421;DHT22;8828;48.800;9.540;2022-12-07T07:39:33;5.10;99.90
17421;DHT22;8828;48.800;9.540;2022-12-07T07:42:01;5.10;99.90
17421;DHT22;8828;48.800;9.540;2022-12-07T07:44:29;5.10;99.90
17421;DHT22;8828;48.800;9.540;2022-12-07T07:47:01;5.10;99.90
17421;DHT22;8828;48.800;9.540;2022-12-07T07:49:29;5.10;99.90
17421;DHT22;8828;48.800;9.540;2022-12-07T07:51:57;5.10;99.90
17421;DHT22;8828;48.800;9.540;2022-12-07T07:54:25;5.10;99.90
17421;DHT22;8828;48.800;9.540;2022-12-07T07:56:54;5.10;99.90
17421;DHT22;8828;48.800;9.540;2022-12-07T07:59:23;5.10;99.90
17421;DHT22;8828;48.800;9.540;2022-12-07T08:01:51;5.10;99.90
17421;DHT22;8828;48.800;9.540;2022-12-07T08:04:19;5.10;99.90
17421;DHT22;8828;48.800;9.540;2022-12-07T08:06:47;5.20;99.90
17421;DHT22;8828;48.800;9.540;2022-12-07T08:09:15;5.20;99.90
17421;DHT22;8828;48.800;9.540;2022-12-07T08:11:43;5.30;99.90
17421;DHT22;8828;48.800;9.540;2022-12-07T08:14:13;5.40;99.90
17421;DHT22;8828;48.800;9.540;2022-12-07T08:16:41;5.40;99.90
17421;DHT22;8828;48.800;9.540;2022-12-07T08:19:09;5.40;99.90
17421;DHT22;8828;48.800;9.540;2022-12-07T08:21:37;5.50;99.90
17421;DHT22;8828;48.800;9.540;2022-12-07T08:24:05;5.50;99.90
17421;DHT22;8828;48.800;9.540;2022-12-07T08:26:34;5.50;99.90
17421;DHT22;8828;48.800;9.540;2022-12-07T08:29:02;5.50;99.90
17421;DHT22;8828;48.800;9.540;2022-12-07T08:31:32;5.50;99.90
17421;DHT22;8828;48.800;9.540;2022-12-07T08:34:01;5.60;99.90
17421;DHT22;8828;48.800;9.540;2022-12-07T08:36:29;5.60;99.90
17421;DHT22;8828;48.800;9.540;2022-12-07T08:38:57;5.60;99.90
17421;DHT22;8828;48.800;9.540;2022-12-07T08:41:45;5.60;99.90
17421;DHT22;8828;48.800;9.540;2022-12-07T08:44:15;5.70;99.90
17421;DHT22;8828;48.800;9.540;2022-12-07T08:46:47;5.70;99.90
17421;DHT22;8828;48.800;9.540;2022-12-07T08:49:20;5.70;99.90
17421;DHT22;8828;48.800;9.540;2022-12-07T08:51:49;5.70;99.90
17421;DHT22;8828;48.800;9.540;2022-12-07T08:54:18;5.80;99.90
17421;DHT22;8828;48.800;9.540;2022-12-07T08:56:47;5.80;99.90
17421;DHT22;8828;48.800;9.540;2022-12-07T08:59:25;5.80;99.90
17421;DHT22;8828;48.800;9.540;2022-12-07T09:01:55;5.90;99.90
17421;DHT22;8828;48.800;9.540;2022-12-07T09:04:24;5.90;99.90
17421;DHT22;8828;48.800;9.540;2022-12-07T09:06:52;6.00;99.90
17421;DHT22;8828;48.800;9.540;2022-12-07T09:09:21;6.00;99.90
17421;DHT22;8828;48.800;9.540;2022-12-07T09:11:49;6.00;99.90
17421;DHT22;8828;48.800;9.540;2022-12-07T09:14:17;6.00;99.90
17421;DHT22;8828;48.800;9.540;2022-12-07T09:16:45;6.10;99.90
17421;DHT22;8828;48.800;9.540;2022-12-07T09:19:15;6.10;99.90
17421;DHT22;8828;48.800;9.540;2022-12-07T09:21:43;6.10;99.90
17421;DHT22;8828;48.800;9.540;2022-12-07T09:24:11;6.10;99.90
17421;DHT22;8828;48.800;9.540;2022-12-07T09:26:39;6.20;99.90
17421;DHT22;8828;48.800;9.540;2022-12-07T09:29:07;6.20;99.90
17421;DHT22;8828;48.800;9.540;2022-12-07T09:31:36;6.20;99.90
17421;DHT22;8828;48.800;9.540;2022-12-07T09:34:05;6.30;99.90
17421;DHT22;8828;48.800;9.540;2022-12-07T09:36:35;6.30;99.90
17421;DHT22;8828;48.800;9.540;2022-12-07T09:39:03;6.40;99.90
17421;DHT22;8828;48.800;9.540;2022-12-07T09:41:32;6.50;99.90
17421;DHT22;8828;48.800;9.540;2022-12-07T09:46:35;6.70;99.90
17421;DHT22;8828;48.800;9.540;2022-12-07T09:49:04;6.80;99.90
17421;DHT22;8828;48.800;9.540;2022-12-07T09:51:32;6.80;99.90
17421;DHT22;8828;48.800;9.540;2022-12-07T09:54:02;6.90;99.90
17421;DHT22;8828;48.800;9.540;2022-12-07T09:56:30;6.90;99.90
17421;DHT22;8828;48.800;9.540;2022-12-07T09:59:01;6.90;99.90
17421;DHT22;8828;48.800;9.540;2022-12-07T10:01:30;7.00;99.90
17421;DHT22;8828;48.800;9.540;2022-12-07T10:04:06;7.10;99.90
17421;DHT22;8828;48.800;9.540;2022-12-07T10:06:37;7.10;99.90
17421;DHT22;8828;48.800;9.540;2022-12-07T10:09:11;7.30;99.90
17421;DHT22;8828;48.800;9.540;2022-12-07T10:11:58;7.40;99.90
17421;DHT22;8828;48.800;9.540;2022-12-07T10:14:28;7.50;99.90
17421;DHT22;8828;48.800;9.540;2022-12-07T10:17:30;7.70;99.90
17421;DHT22;8828;48.800;9.540;2022-12-07T10:20:21;7.80;99.90
17421;DHT22;8828;48.800;9.540;2022-12-07T10:22:59;7.80;99.90
17421;DHT22;8828;48.800;9.540;2022-12-07T10:25:31;7.80;99.90
17421;DHT22;8828;48.800;9.540;2022-12-07T10:28:10;7.80;99.90
17421;DHT22;8828;48.800;9.540;2022-12-07T10:30:55;7.80;99.90
17421;DHT22;8828;48.800;9.540;2022-12-07T10:33:34;7.80;99.90
17421;DHT22;8828;48.800;9.540;2022-12-07T10:36:17;7.70;99.90
17421;DHT22;8828;48.800;9.540;2022-12-07T10:38:47;7.60;99.90
17421;DHT22;8828;48.800;9.540;2022-12-07T10:41:16;7.50;99.90
17421;DHT22;8828;48.800;9.540;2022-12-07T10:43:50;7.50;99.90
17421;DHT22;8828;48.800;9.540;2022-12-07T10:55:40;7.20;99.90
17421;DHT22;8828;48.800;9.540;2022-12-07T10:58:27;7.30;99.90
17421;DHT22;8828;48.800;9.540;2022-12-07T11:01:06;7.20;99.90
17421;DHT22;8828;48.800;9.540;2022-12-07T11:06:34;7.20;99.90
17421;DHT22;8828;48.800;9.540;2022-12-07T11:09:23;7.20;99.90
17421;DHT22;8828;48.800;9.540;2022-12-07T11:12:16;7.20;99.90
17421;DHT22;8828;48.800;9.540;2022-12-07T11:14:56;7.20;99.90
17421;DHT22;8828;48.800;9.540;2022-12-07T11:17:32;7.20;99.90
17421;DHT22;8828;48.800;9.540;2022-12-07T11:20:15;7.10;99.90
17421;DHT22;8828;48.800;9.540;2022-12-07T11:22:51;7.10;99.90
17421;DHT22;8828;48.800;9.540;2022-12-07T11:25:24;7.10;99.90
17421;DHT22;8828;48.800;9.540;2022-12-07T11:28:07;7.10;99.90
17421;DHT22;8828;48.800;9.540;2022-12-07T11:30:45;7.10;99.90
17421;DHT22;8828;48.800;9.540;2022-12-07T11:33:18;7.10;99.90
17421;DHT22;8828;48.800;9.540;2022-12-07T11:35:56;7.00;99.90
17421;DHT22;8828;48.800;9.540;2022-12-07T11:38:36;7.10;99.90
17421;DHT22;8828;48.800;9.540;2022-12-07T11:41:05;7.10;99.90
17421;DHT22;8828;48.800;9.540;2022-12-07T11:43:52;7.00;99.90
17421;DHT22;8828;48.800;9.540;2022-12-07T11:46:25;7.10;99.90
17421;DHT22;8828;48.800;9.540;2022-12-07T11:49:01;7.00;99.90
17421;DHT22;8828;48.800;9.540;2022-12-07T11:51:33;7.00;99.90
17421;DHT22;8828;48.800;9.540;2022-12-07T11:54:05;7.10;99.90
17421;DHT22;8828;48.800;9.540;2022-12-07T11:56:37;7.10;99.90
17421;DHT22;8828;48.800;9.540;2022-12-07T11:59:11;7.10;99.90
17421;DHT22;8828;48.800;9.540;2022-12-07T12:01:50;7.10;99.90
17421;DHT22;8828;48.800;9.540;2022-12-07T12:04:30;7.10;99.90
17421;DHT22;8828;48.800;9.540;2022-12-07T12:06:58;7.10;99.90
17421;DHT22;8828;48.800;9.540;2022-12-07T12:09:51;7.10;99.90
17421;DHT22;8828;48.800;9.540;2022-12-07T12:12:40;7.00;99.90
17421;DHT22;8828;48.800;9.540;2022-12-07T12:15:42;7.00;99.90
17421;DHT22;8828;48.800;9.540;2022-12-07T12:18:38;7.00;99.90
17421;DHT22;8828;48.800;9.540;2022-12-07T12:21:09;6.90;99.90
17421;DHT22;8828;48.800;9.540;2022-12-07T12:23:41;6.90;99.90
17421;DHT22;8828;48.800;9.540;2022-12-07T12:26:17;6.90;99.90
17421;DHT22;8828;48.800;9.540;2022-12-07T12:28:52;6.90;99.90
17421;DHT22;8828;48.800;9.540;2022-12-07T12:31:37;6.90;99.90
17421;DHT22;8828;48.800;9.540;2022-12-07T12:34:32;6.90;99.90
17421;DHT22;8828;48.800;9.540;2022-12-07T12:37:01;6.90;99.90
17421;DHT22;8828;48.800;9.540;2022-12-07T12:39:29;6.90;99.90
17421;DHT22;8828;48.800;9.540;2022-12-07T12:41:58;6.80;99.90
17421;DHT22;8828;48.800;9.540;2022-12-07T12:44:40;6.80;99.90
17421;DHT22;8828;48.800;9.540;2022-12-07T12:47:43;6.90;99.90
17421;DHT22;8828;48.800;9.540;2022-12-07T12:50:22;6.80;99.90
17421;DHT22;8828;48.800;9.540;2022-12-07T12:53:12;6.70;99.90
17421;DHT22;8828;48.800;9.540;2022-12-07T12:58:41;6.70;99.90
17421;DHT22;8828;48.800;9.540;2022-12-07T13:01:43;6.60;99.90
17421;DHT22;8828;48.800;9.540;2022-12-07T13:07:51;6.60;99.90
17421;DHT22;8828;48.800;9.540;2022-12-07T13:10:34;6.50;99.90
17421;DHT22;8828;48.800;9.540;2022-12-07T13:16:40;6.50;99.90
17421;DHT22;8828;48.800;9.540;2022-12-07T13:22:43;6.50;99.90
17421;DHT22;8828;48.800;9.540;2022-12-07T13:25:18;6.50;99.90
17421;DHT22;8828;48.800;9.540;2022-12-07T13:27:50;6.50;99.90
17421;DHT22;8828;48.800;9.540;2022-12-07T13:30:21;6.40;99.90
17421;DHT22;8828;48.800;9.540;2022-12-07T13:32:53;6.40;99.90
17421;DHT22;8828;48.800;9.540;2022-12-07T13:35:29;6.40;99.90
17421;DHT22;8828;48.800;9.540;2022-12-07T13:37:58;6.40;99.90
17421;DHT22;8828;48.800;9.540;2022-12-07T13:40:26;6.40;99.90
17421;DHT22;8828;48.800;9.540;2022-12-07T13:42:58;6.30;99.90
17421;DHT22;8828;48.800;9.540;2022-12-07T13:45:28;6.40;99.90
17421;DHT22;8828;48.800;9.540;2022-12-07T13:48:33;6.40;99.90
17421;DHT22;8828;48.800;9.540;2022-12-07T13:51:04;6.40;99.90
17421;DHT22;8828;48.800;9.540;2022-12-07T13:53:32;6.30;99.90
17421;DHT22;8828;48.800;9.540;2022-12-07T13:56:00;6.40;99.90
17421;DHT22;8828;48.800;9.540;2022-12-07T13:58:30;6.30;99.90
17421;DHT22;8828;48.800;9.540;2022-12-07T14:00:59;6.40;99.90
17421;DHT22;8828;48.800;9.540;2022-12-07T14:03:31;6.30;99.90
17421;DHT22;8828;48.800;9.540;2022-12-07T14:06:06;6.30;99.90
17421;DHT22;8828;48.800;9.540;2022-12-07T14:08:35;6.30;99.90
17421;DHT22;8828;48.800;9.540;2022-12-07T14:11:03;6.30;99.90
17421;DHT22;8828;48.800;9.540;2022-12-07T14:13:32;6.30;99.90
17421;DHT22;8828;48.800;9.540;2022-12-07T14:16:02;6.30;99.90
17421;DHT22;8828;48.800;9.540;2022-12-07T14:18:37;6.30;99.90
17421;DHT22;8828;48.800;9.540;2022-12-07T14:21:14;6.30;99.90
17421;DHT22;8828;48.800;9.540;2022-12-07T14:23:43;6.40;99.90
17421;DHT22;8828;48.800;9.540;2022-12-07T14:26:12;6.30;99.90
17421;DHT22;8828;48.800;9.540;2022-12-07T14:28:41;6.30;99.90
17421;DHT22;8828;48.800;9.540;2022-12-07T14:31:12;6.30;99.90
17421;DHT22;8828;48.800;9.540;2022-12-07T14:33:50;6.30;99.90
17421;DHT22;8828;48.800;9.540;2022-12-07T14:36:20;6.40;99.90
17421;DHT22;8828;48.800;9.540;2022-12-07T14:38:48;6.30;99.90
17421;DHT22;8828;48.800;9.540;2022-12-07T14:41:17;6.40;99.90
17421;DHT22;8828;48.800;9.540;2022-12-07T14:44:09;6.30;99.90
17421;DHT22;8828;48.800;9.540;2022-12-07T14:46:58;6.30;99.90
17421;DHT22;8828;48.800;9.540;2022-12-07T14:49:46;6.30;99.90
17421;DHT22;8828;48.800;9.540;2022-12-07T14:52:18;6.30;99.90
17421;DHT22;8828;48.800;9.540;2022-12-07T14:55:13;6.30;99.90
17421;DHT22;8828;48.800;9.540;2022-12-07T14:57:42;6.30;99.90
17421;DHT22;8828;48.800;9.540;2022-12-07T15:00:14;6.30;99.90
17421;DHT22;8828;48.800;9.540;2022-12-07T15:02:42;6.30;99.90
17421;DHT22;8828;48.800;9.540;2022-12-07T15:05:11;6.30;99.90
17421;DHT22;8828;48.800;9.540;2022-12-07T15:07:44;6.30;99.90
17421;DHT22;8828;48.800;9.540;2022-12-07T15:10:16;6.30;99.90
17421;DHT22;8828;48.800;9.540;2022-12-07T15:12:50;6.30;99.90
17421;DHT22;8828;48.800;9.540;2022-12-07T15:15:19;6.30;99.90
17421;DHT22;8828;48.800;9.540;2022-12-07T15:17:47;6.20;99.90
17421;DHT22;8828;48.800;9.540;2022-12-07T15:20:15;6.30;99.90
17421;DHT22;8828;48.800;9.540;2022-12-07T15:22:46;6.20;99.90
17421;DHT22;8828;48.800;9.540;2022-12-07T15:25:14;6.20;99.90
17421;DHT22;8828;48.800;9.540;2022-12-07T15:27:42;6.20;99.90
17421;DHT22;8828;48.800;9.540;2022-12-07T15:30:10;6.20;99.90
17421;DHT22;8828;48.800;9.540;2022-12-07T15:32:38;6.10;99.90
17421;DHT22;8828;48.800;9.540;2022-12-07T15:35:07;6.10;99.90
17421;DHT22;8828;48.800;9.540;2022-12-07T15:37:35;6.10;99.90
17421;DHT22;8828;48.800;9.540;2022-12-07T15:40:06;6.10;99.90
17421;DHT22;8828;48.800;9.540;2022-12-07T15:42:35;6.10;99.90
17421;DHT22;8828;48.800;9.540;2022-12-07T15:45:05;6.10;99.90
17421;DHT22;8828;48.800;9.540;2022-12-07T15:47:35;6.10;99.90
17421;DHT22;8828;48.800;9.540;2022-12-07T15:50:23;6.00;99.90
17421;DHT22;8828;48.800;9.540;2022-12-07T15:52:52;6.00;99.90
17421;DHT22;8828;48.800;9.540;2022-12-07T15:55:21;6.00;99.90
17421;DHT22;8828;48.800;9.540;2022-12-07T15:57:49;6.00;99.90
17421;DHT22;8828;48.800;9.540;2022-12-07T16:00:18;6.00;99.90
17421;DHT22;8828;48.800;9.540;2022-12-07T16:02:46;6.00;99.90
17421;DHT22;8828;48.800;9.540;2022-12-07T16:05:14;6.00;99.90
17421;DHT22;8828;48.800;9.540;2022-12-07T16:07:42;6.00;99.90
17421;DHT22;8828;48.800;9.540;2022-12-07T16:10:13;6.00;99.90
17421;DHT22;8828;48.800;9.540;2022-12-07T16:12:42;6.10;99.90
17421;DHT22;8828;48.800;9.540;2022-12-07T16:15:11;6.10;99.90
17421;DHT22;8828;48.800;9.540;2022-12-07T16:17:39;6.10;99.90
17421;DHT22;8828;48.800;9.540;2022-12-07T16:20:07;6.10;99.90
17421;DHT22;8828;48.800;9.540;2022-12-07T16:22:36;6.10;99.90
17421;DHT22;8828;48.800;9.540;2022-12-07T16:25:04;6.10;99.90
17421;DHT22;8828;48.800;9.540;2022-12-07T16:27:33;6.10;99.90
17421;DHT22;8828;48.800;9.540;2022-12-07T16:30:03;6.10;99.90
17421;DHT22;8828;48.800;9.540;2022-12-07T16:32:31;6.10;99.90
17421;DHT22;8828;48.800;9.540;2022-12-07T16:35:00;6.10;99.90
17421;DHT22;8828;48.800;9.540;2022-12-07T16:37:29;6.00;99.90
17421;DHT22;8828;48.800;9.540;2022-12-07T16:39:57;6.10;99.90
17421;DHT22;8828;48.800;9.540;2022-12-07T16:42:25;6.00;99.90
17421;DHT22;8828;48.800;9.540;2022-12-07T16:44:53;6.00;99.90
17421;DHT22;8828;48.800;9.540;2022-12-07T16:47:22;6.00;99.90
17421;DHT22;8828;48.800;9.540;2022-12-07T16:49:50;6.00;99.90
17421;DHT22;8828;48.800;9.540;2022-12-07T16:52:19;6.00;99.90
17421;DHT22;8828;48.800;9.540;2022-12-07T16:54:48;6.00;99.90
17421;DHT22;8828;48.800;9.540;2022-12-07T16:57:17;6.00;99.90
17421;DHT22;8828;48.800;9.540;2022-12-07T16:59:49;6.00;99.90
17421;DHT22;8828;48.800;9.540;2022-12-07T17:02:19;6.00;99.90